createdAt,value
2018-03-01T00:02:01.304Z,4.07
2018-03-01T00:04:27.704Z,5.10
2018-03-01T00:06:53.700Z,5.40
2018-03-01T00:09:19.676Z,1.57
2018-03-01T00:11:45.680Z,5.10
2018-03-01T00:14:11.708Z,5.93
2018-03-01T00:16:37.759Z,2.57
2018-03-01T00:19:04.610Z,3.87
2018-03-01T00:21:30.810Z,3.73
2018-03-01T00:23:56.873Z,4.53
2018-03-01T00:26:22.856Z,4.30
2018-03-01T00:28:48.844Z,4.07
2018-03-01T00:31:14.842Z,3.77
2018-03-01T00:33:40.847Z,3.57
2018-03-01T00:36:07.576Z,5.37
2018-03-01T00:38:35.123Z,2.80
2018-03-01T00:41:01.195Z,5.43
2018-03-01T00:43:28.073Z,5.23
2018-03-01T00:45:54.050Z,4.07
2018-03-01T00:48:20.046Z,4.80
2018-03-01T00:50:46.090Z,3.80
2018-03-01T00:53:12.093Z,3.43
2018-03-01T00:55:38.074Z,3.97
2018-03-01T00:58:04.140Z,3.57
2018-03-01T01:00:30.178Z,2.97
2018-03-01T01:02:56.212Z,3.83
2018-03-01T01:05:22.233Z,3.47
2018-03-01T01:07:48.213Z,4.73
2018-03-01T01:10:14.924Z,5.00
2018-03-01T01:12:40.970Z,4.57
2018-03-01T01:15:07.005Z,3.40
2018-03-01T01:17:33.080Z,4.37
2018-03-01T01:19:59.923Z,3.63
2018-03-01T01:22:25.916Z,5.00
2018-03-01T01:24:51.909Z,4.77
2018-03-01T01:27:18.624Z,3.83
2018-03-01T01:29:44.584Z,2.10
2018-03-01T01:32:10.595Z,4.63
2018-03-01T01:34:36.689Z,5.93
2018-03-01T01:37:02.747Z,4.13
2018-03-01T01:39:29.096Z,5.10
2018-03-01T01:41:55.051Z,2.73
2018-03-01T01:44:21.056Z,3.33
2018-03-01T01:46:47.043Z,3.23
2018-03-01T01:49:13.782Z,3.20
2018-03-01T01:51:39.757Z,3.20
2018-03-01T01:54:06.552Z,3.93
2018-03-01T01:56:39.712Z,3.33
2018-03-01T01:59:06.492Z,4.17
2018-03-01T02:01:32.535Z,3.67
2018-03-01T02:03:58.693Z,4.23
2018-03-01T02:06:24.725Z,3.77
2018-03-01T02:08:50.700Z,5.23
2018-03-01T02:11:17.441Z,3.27
2018-03-01T02:13:43.455Z,5.23
2018-03-01T02:16:09.432Z,4.43
2018-03-01T02:18:36.218Z,2.30
2018-03-01T02:21:02.329Z,5.60
2018-03-01T02:23:29.232Z,3.83
2018-03-01T02:25:55.196Z,3.67
2018-03-01T02:28:22.704Z,3.77
2018-03-01T02:30:49.445Z,4.67
2018-03-01T02:33:16.181Z,3.90
2018-03-01T02:35:42.189Z,4.03
2018-03-01T02:38:08.173Z,3.50
2018-03-01T02:40:35.004Z,6.37
2018-03-01T02:43:01.093Z,2.57
2018-03-01T02:45:27.772Z,3.90
2018-03-01T02:47:53.773Z,2.67
2018-03-01T02:50:19.769Z,5.80
2018-03-01T02:52:45.756Z,2.43
2018-03-01T02:55:11.734Z,3.03
2018-03-01T02:57:37.746Z,3.73
2018-03-01T03:00:03.888Z,4.43
2018-03-01T03:02:29.925Z,5.13
2018-03-01T03:04:55.929Z,2.63
2018-03-01T03:07:21.939Z,2.93
2018-03-01T03:09:48.695Z,3.97
2018-03-01T03:12:14.681Z,3.23
2018-03-01T03:14:40.685Z,2.87
2018-03-01T03:17:06.795Z,3.27
2018-03-01T03:19:32.856Z,5.90
2018-03-01T03:21:58.931Z,2.67
2018-03-01T03:24:24.929Z,2.97
2018-03-01T03:26:50.924Z,5.77
2018-03-01T03:29:16.924Z,3.77
2018-03-01T03:31:42.902Z,4.20
2018-03-01T03:34:08.912Z,3.97
2018-03-01T03:36:34.996Z,4.87
2018-03-01T03:39:01.951Z,3.13
2018-03-01T03:41:28.733Z,3.40
2018-03-01T03:43:54.733Z,4.70
2018-03-01T03:46:20.706Z,4.67
2018-03-01T03:48:46.706Z,5.17
2018-03-01T03:51:12.685Z,4.03
2018-03-01T03:53:38.901Z,4.77
2018-03-01T03:56:05.709Z,3.60
2018-03-01T03:58:31.769Z,3.57
2018-03-01T04:00:58.551Z,2.17
2018-03-01T04:03:24.585Z,3.87
2018-03-01T04:05:50.561Z,4.43
2018-03-01T04:08:17.582Z,6.70
2018-03-01T04:10:43.624Z,3.03
2018-03-01T04:13:09.643Z,4.27
2018-03-01T04:15:36.413Z,3.73
2018-03-01T04:18:02.469Z,3.90
2018-03-01T04:20:28.524Z,3.87
2018-03-01T04:22:55.997Z,2.90
2018-03-01T04:25:21.990Z,4.00
2018-03-01T04:27:47.958Z,4.13
2018-03-01T04:30:13.958Z,4.10
2018-03-01T04:32:39.953Z,3.73
2018-03-01T04:35:06.056Z,2.73
2018-03-01T04:37:32.116Z,3.67
2018-03-01T04:39:58.187Z,4.60
2018-03-01T04:42:24.905Z,5.33
2018-03-01T04:44:50.889Z,3.80
2018-03-01T04:47:17.593Z,3.30
2018-03-01T04:49:43.566Z,3.27
2018-03-01T04:52:10.318Z,4.80
2018-03-01T04:54:37.192Z,4.17
2018-03-01T04:57:03.235Z,2.20
2018-03-01T04:59:29.370Z,3.00
2018-03-01T05:01:55.347Z,3.83
2018-03-01T05:04:21.338Z,4.47
2018-03-01T05:06:47.310Z,3.80
2018-03-01T05:09:13.309Z,3.10
2018-03-01T05:11:39.333Z,3.63
2018-03-01T05:14:06.129Z,4.17
2018-03-01T05:16:32.154Z,2.27
2018-03-01T05:18:58.294Z,5.20
2018-03-01T05:21:24.285Z,3.90
2018-03-01T05:23:50.316Z,3.67
2018-03-01T05:26:16.336Z,2.43
2018-03-01T05:28:42.345Z,3.67
2018-03-01T05:31:08.316Z,4.67
2018-03-01T05:33:34.346Z,2.97
2018-03-01T05:36:01.411Z,3.80
2018-03-01T05:38:27.537Z,4.33
2018-03-01T05:40:53.531Z,4.83
2018-03-01T05:43:19.512Z,3.63
2018-03-01T05:45:45.481Z,3.57
2018-03-01T05:48:12.255Z,2.53
2018-03-01T05:50:38.321Z,4.10
2018-03-01T05:53:04.329Z,3.47
2018-03-01T05:55:30.397Z,3.03
2018-03-01T05:57:56.397Z,4.37
2018-03-01T06:00:22.409Z,4.87
2018-03-01T06:02:49.178Z,3.10
2018-03-01T06:05:15.187Z,3.17
2018-03-01T06:07:41.176Z,3.00
2018-03-01T06:10:07.298Z,2.97
2018-03-01T06:12:33.371Z,2.70
2018-03-01T06:14:59.487Z,2.27
2018-03-01T06:17:25.472Z,2.53
2018-03-01T06:19:51.465Z,4.00
2018-03-01T06:22:17.462Z,2.93
2018-03-01T06:24:44.197Z,3.40
2018-03-01T06:27:10.182Z,3.57
2018-03-01T06:29:36.355Z,3.20
2018-03-01T06:32:02.525Z,5.33
2018-03-01T06:34:29.432Z,2.80
2018-03-01T06:36:55.445Z,1.93
2018-03-01T06:39:21.463Z,4.80
2018-03-01T06:41:47.493Z,3.07
2018-03-01T06:44:14.283Z,2.53
2018-03-01T06:46:40.293Z,3.57
2018-03-01T06:49:07.101Z,3.57
2018-03-01T06:51:33.421Z,3.40
2018-03-01T06:53:59.586Z,2.47
2018-03-01T06:56:25.585Z,5.13
2018-03-01T06:58:51.596Z,3.30
2018-03-01T07:01:25.487Z,3.00
2018-03-01T07:03:51.453Z,3.27
2018-03-01T07:06:18.187Z,2.30
2018-03-01T07:08:44.174Z,3.23
2018-03-01T07:11:10.225Z,4.50
2018-03-01T07:13:36.962Z,2.10
2018-03-01T07:16:03.016Z,4.30
2018-03-01T07:18:29.079Z,4.53
2018-03-01T07:20:55.073Z,3.63
2018-03-01T07:23:21.085Z,3.53
2018-03-01T07:25:47.823Z,5.00
2018-03-01T07:28:14.561Z,3.33
2018-03-01T07:30:40.596Z,3.17
2018-03-01T07:33:06.686Z,2.57
2018-03-01T07:35:32.743Z,2.80
2018-03-01T07:37:58.868Z,2.20
2018-03-01T07:40:24.840Z,2.73
2018-03-01T07:42:50.842Z,2.27
2018-03-01T07:45:16.873Z,5.60
2018-03-01T07:47:42.901Z,2.40
2018-03-01T07:50:08.903Z,4.23
2018-03-01T07:52:35.029Z,2.30
2018-03-01T07:55:01.125Z,2.57
2018-03-01T07:57:27.134Z,2.80
2018-03-01T07:59:53.153Z,1.97
2018-03-01T08:02:19.124Z,3.40
2018-03-01T08:04:45.111Z,2.13
2018-03-01T08:07:11.163Z,4.83
2018-03-01T08:09:37.921Z,4.27
2018-03-01T08:12:04.719Z,2.07
2018-03-01T08:14:30.949Z,3.87
2018-03-01T08:16:56.964Z,2.97
2018-03-01T08:19:23.706Z,2.57
2018-03-01T08:21:50.430Z,2.93
2018-03-01T08:24:16.431Z,3.30
2018-03-01T08:26:42.433Z,2.37
2018-03-01T08:29:09.213Z,2.87
2018-03-01T08:31:35.337Z,2.80
2018-03-01T08:34:02.177Z,1.80
2018-03-01T08:36:29.048Z,3.97
2018-03-01T08:38:55.049Z,3.80
2018-03-01T08:41:21.053Z,2.60
2018-03-01T08:43:53.901Z,2.93
2018-03-01T08:46:20.627Z,3.37
2018-03-01T08:48:46.644Z,4.37
2018-03-01T08:51:12.650Z,3.00
2018-03-01T08:53:38.637Z,3.50
2018-03-01T08:56:04.752Z,3.23
2018-03-01T08:58:30.938Z,3.60
2018-03-01T09:00:57.785Z,3.40
2018-03-01T09:03:23.786Z,2.57
2018-03-01T09:05:49.774Z,4.03
2018-03-01T09:08:16.481Z,3.10
2018-03-01T09:10:42.504Z,3.23
2018-03-01T09:13:08.509Z,2.67
2018-03-01T09:15:35.302Z,2.20
2018-03-01T09:18:01.338Z,2.93
2018-03-01T09:20:27.358Z,3.57
2018-03-01T09:22:53.376Z,3.40
2018-03-01T09:25:19.380Z,2.67
2018-03-01T09:27:45.363Z,4.30
2018-03-01T09:30:11.367Z,2.80
2018-03-01T09:32:38.145Z,4.97
2018-03-01T09:35:04.242Z,3.70
2018-03-01T09:37:30.274Z,2.73
2018-03-01T09:39:56.286Z,3.33
2018-03-01T09:42:22.309Z,4.67
2018-03-01T09:44:48.305Z,4.07
2018-03-01T09:47:15.049Z,2.33
2018-03-01T09:49:41.794Z,2.40
2018-03-01T09:52:07.797Z,2.83
2018-03-01T09:54:33.873Z,3.40
2018-03-01T09:57:00.723Z,3.83
2018-03-01T09:59:26.724Z,3.63
2018-03-01T10:01:52.730Z,3.50
2018-03-01T10:04:18.745Z,4.07
2018-03-01T10:06:45.472Z,3.20
2018-03-01T10:09:11.444Z,2.57
2018-03-01T10:11:38.224Z,3.17
2018-03-01T10:14:04.258Z,4.60
2018-03-01T10:16:30.342Z,5.90
2018-03-01T10:18:56.330Z,3.83
2018-03-01T10:21:22.339Z,2.23
2018-03-01T10:23:49.049Z,2.67
2018-03-01T10:26:15.053Z,4.00
2018-03-01T10:28:41.070Z,2.93
2018-03-01T10:31:07.819Z,3.97
2018-03-01T10:33:40.798Z,2.57
2018-03-01T10:36:06.887Z,5.13
2018-03-01T10:38:33.046Z,3.43
2018-03-01T10:40:59.162Z,2.43
2018-03-01T10:43:25.186Z,2.93
2018-03-01T10:45:51.239Z,2.57
2018-03-01T10:48:17.304Z,4.43
2018-03-01T10:50:43.353Z,3.63
2018-03-01T10:53:09.405Z,4.00
2018-03-01T10:55:36.247Z,2.80
2018-03-01T10:58:02.344Z,3.33
2018-03-01T11:03:32.816Z,3.50
2018-03-01T11:05:59.594Z,3.37
2018-03-01T11:08:25.684Z,3.67
2018-03-01T11:10:52.425Z,4.43
2018-03-01T11:13:18.413Z,4.10
2018-03-01T11:15:44.407Z,2.43
2018-03-01T11:18:11.130Z,2.00
2018-03-01T11:20:37.901Z,4.53
2018-03-01T11:23:03.938Z,2.90
2018-03-01T11:25:30.753Z,3.50
2018-03-01T11:27:56.721Z,3.57
2018-03-01T11:30:22.689Z,3.37
2018-03-01T11:32:48.655Z,4.67
2018-03-01T11:35:14.732Z,4.30
2018-03-01T11:37:40.690Z,3.90
2018-03-01T11:40:06.777Z,3.43
2018-03-01T11:42:32.819Z,3.40
2018-03-01T11:44:58.879Z,3.80
2018-03-01T11:47:25.625Z,3.90
2018-03-01T11:49:51.600Z,3.27
2018-03-01T11:52:17.614Z,4.13
2018-03-01T11:54:44.347Z,1.83
2018-03-01T11:57:10.334Z,2.83
2018-03-01T11:59:36.348Z,5.27
2018-03-01T12:02:02.392Z,3.70
2018-03-01T12:04:28.401Z,2.93
2018-03-01T12:06:55.122Z,3.53
2018-03-01T12:09:21.092Z,3.73
2018-03-01T12:11:47.805Z,5.47
2018-03-01T12:14:13.809Z,4.27
2018-03-01T12:16:39.814Z,4.07
2018-03-01T12:19:05.871Z,3.50
2018-03-01T12:21:31.936Z,3.30
2018-03-01T12:23:57.990Z,3.30
2018-03-01T12:26:24.008Z,3.30
2018-03-01T12:28:49.990Z,5.00
2018-03-01T12:31:16.737Z,4.37
2018-03-01T12:33:42.715Z,3.47
2018-03-01T12:36:08.742Z,4.17
2018-03-01T12:38:35.498Z,4.07
2018-03-01T12:41:01.533Z,3.33
2018-03-01T12:43:27.509Z,4.93
2018-03-01T12:45:53.509Z,3.37
2018-03-01T12:48:19.497Z,3.17
2018-03-01T12:50:45.495Z,5.03
2018-03-01T12:53:11.472Z,3.90
2018-03-01T12:55:38.258Z,3.90
2018-03-01T12:58:04.328Z,3.97
2018-03-01T13:00:30.369Z,4.53
2018-03-01T13:02:57.127Z,3.47
2018-03-01T13:05:24.589Z,5.03
2018-03-01T13:07:50.576Z,3.90
2018-03-01T13:10:16.594Z,2.93
2018-03-01T13:12:42.593Z,5.03
2018-03-01T13:15:08.614Z,4.40
2018-03-01T13:17:34.718Z,4.07
2018-03-01T13:20:00.820Z,4.37
2018-03-01T13:22:27.634Z,3.90
2018-03-01T13:24:53.683Z,2.77
2018-03-01T13:27:19.724Z,5.43
2018-03-01T13:29:45.708Z,4.30
2018-03-01T13:32:14.582Z,3.10
2018-03-01T13:37:39.493Z,3.87
2018-03-01T13:40:05.492Z,4.10
2018-03-01T13:42:32.380Z,2.70
2018-03-01T13:44:58.445Z,4.43
2018-03-01T13:47:28.064Z,4.53
2018-03-01T13:49:54.067Z,9.43
2018-03-01T13:52:27.136Z,3.40
2018-03-01T13:54:53.138Z,4.47
2018-03-01T13:57:19.163Z,4.73
2018-03-01T13:59:45.178Z,4.63
2018-03-01T14:02:18.765Z,4.03
2018-03-01T14:04:44.744Z,4.77
2018-03-01T14:07:11.638Z,4.50
2018-03-01T14:09:38.381Z,5.00
2018-03-01T14:12:05.127Z,3.67
2018-03-01T14:14:31.178Z,4.70
2018-03-01T14:16:58.042Z,4.53
2018-03-01T14:19:26.907Z,3.93
2018-03-01T14:22:08.616Z,3.97
2018-03-01T14:24:34.736Z,3.27
2018-03-01T14:30:01.490Z,3.97
2018-03-01T14:32:27.521Z,4.03
2018-03-01T14:34:53.554Z,4.00
2018-03-01T14:37:20.374Z,4.13
2018-03-01T14:39:46.415Z,4.83
2018-03-01T14:42:12.401Z,5.27
2018-03-01T14:44:38.416Z,3.57
2018-03-01T14:47:05.140Z,4.27
2018-03-01T14:49:31.145Z,2.03
2018-03-01T14:51:57.153Z,4.93
2018-03-01T14:54:23.293Z,5.00
2018-03-01T14:56:49.337Z,3.97
2018-03-01T14:59:15.492Z,4.97
2018-03-01T15:01:41.469Z,4.67
2018-03-01T15:04:07.477Z,5.67
2018-03-01T15:06:33.458Z,4.70
2018-03-01T15:09:00.211Z,3.20
2018-03-01T15:11:26.974Z,3.37
2018-03-01T15:13:52.976Z,4.07
2018-03-01T15:16:18.993Z,4.00
2018-03-01T15:18:45.256Z,3.60
2018-03-01T15:21:11.974Z,5.10
2018-03-01T15:23:37.965Z,5.13
2018-03-01T15:26:03.954Z,5.43
2018-03-01T15:28:29.926Z,4.53
2018-03-01T15:30:56.651Z,5.17
2018-03-01T15:33:22.684Z,4.40
2018-03-01T15:35:49.485Z,3.07
2018-03-01T15:38:16.299Z,3.20
2018-03-01T15:40:42.274Z,5.07
2018-03-01T15:43:08.998Z,4.73
2018-03-01T15:45:35.732Z,4.20
2018-03-01T15:48:01.718Z,4.23
2018-03-01T15:50:27.685Z,5.47
2018-03-01T15:53:00.708Z,4.60
2018-03-01T15:55:26.715Z,3.53
2018-03-01T15:57:52.715Z,4.20
2018-03-01T16:00:19.463Z,4.60
2018-03-01T16:02:46.367Z,6.30
2018-03-01T16:05:12.366Z,3.60
2018-03-01T16:07:39.101Z,4.53
2018-03-01T16:10:05.096Z,5.70
2018-03-01T16:12:31.086Z,4.20
2018-03-01T16:14:57.809Z,3.73
2018-03-01T16:17:23.799Z,4.10
2018-03-01T16:19:49.862Z,4.67
2018-03-01T16:22:16.076Z,5.23
2018-03-01T16:24:42.059Z,4.97
2018-03-01T16:27:08.054Z,4.60
2018-03-01T16:29:34.045Z,4.03
2018-03-01T16:32:00.027Z,4.87
2018-03-01T16:34:27.501Z,5.13
2018-03-01T16:36:53.622Z,4.43
2018-03-01T16:39:19.634Z,6.63
2018-03-01T16:41:45.805Z,4.57
2018-03-01T16:44:11.780Z,5.00
2018-03-01T16:46:38.489Z,3.83
2018-03-01T16:49:04.485Z,5.13
2018-03-01T16:51:30.455Z,3.33
2018-03-01T16:53:56.514Z,5.07
2018-03-01T16:56:22.570Z,3.67
2018-03-01T16:58:49.437Z,4.87
2018-03-01T17:01:16.256Z,4.50
2018-03-01T17:03:42.267Z,4.20
2018-03-01T17:06:08.246Z,5.83
2018-03-01T17:08:34.240Z,4.43
2018-03-01T17:11:00.245Z,3.53
2018-03-01T17:13:26.228Z,6.10
2018-03-01T17:15:52.273Z,3.53
2018-03-01T17:18:18.391Z,5.37
2018-03-01T17:20:44.388Z,6.60
2018-03-01T17:23:11.124Z,6.30
2018-03-01T17:25:37.117Z,6.03
2018-03-01T17:28:03.102Z,5.10
2018-03-01T17:30:29.106Z,3.77
2018-03-01T17:32:55.191Z,4.80
2018-03-01T17:35:22.025Z,4.63
2018-03-01T17:37:48.055Z,4.63
2018-03-01T17:40:14.073Z,4.10
2018-03-01T17:42:40.062Z,5.30
2018-03-01T17:45:06.789Z,4.83
2018-03-01T17:47:32.910Z,4.00
2018-03-01T17:49:59.034Z,5.40
2018-03-01T17:52:25.046Z,5.53
2018-03-01T17:54:51.172Z,6.63
2018-03-01T17:57:24.427Z,5.03
2018-03-01T17:59:50.497Z,4.30
2018-03-01T18:02:16.655Z,3.83
2018-03-01T18:04:43.392Z,5.97
2018-03-01T18:07:09.385Z,5.93
2018-03-01T18:09:35.369Z,4.43
2018-03-01T18:12:02.141Z,5.33
2018-03-01T18:14:28.179Z,6.13
2018-03-01T18:16:54.210Z,3.80
2018-03-01T18:19:20.304Z,6.30
2018-03-01T18:21:47.117Z,5.40
2018-03-01T18:24:13.093Z,4.53
2018-03-01T18:26:39.122Z,5.30
2018-03-01T18:29:05.101Z,4.27
2018-03-01T18:31:31.818Z,5.07
2018-03-01T18:33:57.809Z,3.50
2018-03-01T18:36:23.857Z,6.33
2018-03-01T18:38:49.900Z,6.03
2018-03-01T18:41:15.890Z,5.63
2018-03-01T18:43:41.869Z,4.80
2018-03-01T18:46:07.851Z,6.03
2018-03-01T18:48:33.843Z,4.67
2018-03-01T18:50:59.841Z,5.13
2018-03-01T18:53:25.841Z,6.07
2018-03-01T18:55:51.873Z,5.13
2018-03-01T18:58:17.874Z,6.03
2018-03-01T19:00:43.847Z,5.07
2018-03-01T19:03:09.864Z,6.30
2018-03-01T19:05:35.867Z,6.40
2018-03-01T19:08:02.578Z,4.67
2018-03-01T19:10:29.612Z,5.53
2018-03-01T19:12:55.634Z,5.07
2018-03-01T19:15:21.670Z,5.60
2018-03-01T19:17:47.657Z,6.00
2018-03-01T19:20:13.642Z,6.47
2018-03-01T19:22:39.624Z,7.30
2018-03-01T19:25:05.641Z,4.87
2018-03-01T19:27:31.613Z,5.87
2018-03-01T19:29:58.343Z,7.30
2018-03-01T19:32:24.479Z,6.17
2018-03-01T19:34:50.478Z,7.33
2018-03-01T19:37:16.620Z,5.50
2018-03-01T19:39:42.808Z,5.83
2018-03-01T19:42:09.533Z,6.37
2018-03-01T19:44:35.534Z,7.17
2018-03-01T19:47:01.530Z,6.00
2018-03-01T19:49:27.499Z,5.37
2018-03-01T19:51:53.497Z,5.07
2018-03-01T19:54:19.477Z,5.90
2018-03-01T19:56:45.543Z,6.00
2018-03-01T19:59:11.559Z,4.40
2018-03-01T20:01:38.281Z,6.40
2018-03-01T20:04:05.026Z,6.23
2018-03-01T20:06:31.040Z,6.27
2018-03-01T20:08:57.004Z,6.67
2018-03-01T20:11:23.014Z,9.20
2018-03-01T20:13:49.107Z,7.03
2018-03-01T20:16:15.173Z,6.80
2018-03-01T20:18:41.917Z,7.20
2018-03-01T20:21:07.885Z,6.63
2018-03-01T20:23:34.023Z,6.97
2018-03-01T20:25:59.940Z,7.57
2018-03-01T20:28:25.916Z,6.13
2018-03-01T20:30:52.731Z,7.47
2018-03-01T20:33:18.768Z,6.90
2018-03-01T20:35:44.931Z,5.37
2018-03-01T20:38:10.917Z,8.33
2018-03-01T20:40:36.950Z,8.00
2018-03-01T20:43:02.924Z,9.40
2018-03-01T20:45:28.896Z,7.63
2018-03-01T20:47:55.625Z,6.20
2018-03-01T20:50:21.606Z,6.60
2018-03-01T20:52:47.701Z,5.93
2018-03-01T20:55:13.967Z,8.33
2018-03-01T20:57:40.358Z,7.00
2018-03-01T21:00:06.371Z,6.67
2018-03-01T21:02:32.839Z,6.17
2018-03-01T21:04:59.154Z,6.40
2018-03-01T21:07:25.246Z,7.47
2018-03-01T21:09:52.115Z,7.60
2018-03-01T21:12:18.123Z,6.30
2018-03-01T21:14:44.121Z,5.97
2018-03-01T21:17:10.141Z,7.13
2018-03-01T21:19:36.904Z,7.57
2018-03-01T21:22:02.877Z,11.13
2018-03-01T21:24:28.862Z,6.77
2018-03-01T21:26:55.885Z,7.13
2018-03-01T21:29:21.871Z,6.50
2018-03-01T21:31:47.929Z,9.27
2018-03-01T21:34:13.932Z,7.60
2018-03-01T21:36:40.677Z,7.13
2018-03-01T21:39:07.390Z,8.03
2018-03-01T21:41:33.381Z,9.43
2018-03-01T21:43:59.385Z,5.67
2018-03-01T21:46:25.354Z,6.10
2018-03-01T21:48:51.336Z,5.40
2018-03-01T21:51:17.469Z,7.23
2018-03-01T21:53:43.483Z,8.00
2018-03-01T21:56:09.462Z,7.43
2018-03-01T21:58:35.432Z,7.40
2018-03-01T22:01:01.455Z,8.27
2018-03-01T22:03:28.216Z,5.23
2018-03-01T22:05:54.206Z,7.97
2018-03-01T22:08:20.205Z,6.07
2018-03-01T22:10:46.235Z,9.40
2018-03-01T22:13:12.206Z,6.97
2018-03-01T22:15:38.189Z,9.07
2018-03-01T22:18:04.915Z,6.40
2018-03-01T22:20:30.912Z,7.93
2018-03-01T22:22:56.889Z,9.43
2018-03-01T22:25:22.887Z,7.90
2018-03-01T22:27:48.893Z,7.80
2018-03-01T22:30:14.885Z,7.07
2018-03-01T22:32:40.861Z,6.83
2018-03-01T22:35:06.835Z,7.37
2018-03-01T22:37:32.805Z,8.60
2018-03-01T22:39:58.793Z,9.70
2018-03-01T22:42:24.785Z,8.33
2018-03-01T22:44:51.520Z,10.23
2018-03-01T22:47:17.536Z,8.10
2018-03-01T22:49:43.518Z,7.50
2018-03-01T22:52:10.224Z,8.73
2018-03-01T22:54:36.196Z,7.07
2018-03-01T22:57:02.173Z,7.50
2018-03-01T22:59:28.145Z,7.97
2018-03-01T23:01:55.622Z,5.53
2018-03-01T23:04:21.619Z,8.70
2018-03-01T23:06:47.793Z,6.23
2018-03-01T23:09:13.770Z,9.17
2018-03-01T23:11:39.761Z,8.50
2018-03-01T23:14:05.734Z,7.07
2018-03-01T23:16:32.452Z,6.70
2018-03-01T23:18:58.418Z,9.03
2018-03-01T23:21:25.129Z,8.87
2018-03-01T23:23:51.870Z,7.33
2018-03-01T23:26:17.953Z,6.63
2018-03-01T23:28:44.673Z,7.93
2018-03-01T23:31:10.642Z,9.60
2018-03-01T23:33:37.349Z,8.73
2018-03-01T23:36:03.409Z,7.07
2018-03-01T23:38:29.423Z,9.43
2018-03-01T23:40:55.417Z,8.67
2018-03-01T23:43:22.302Z,8.43
2018-03-01T23:45:48.337Z,6.37
2018-03-01T23:48:14.312Z,9.97
2018-03-01T23:50:40.301Z,6.43
2018-03-01T23:53:06.276Z,7.00
2018-03-01T23:55:33.007Z,7.77
2018-03-01T23:57:58.979Z,9.87
